Dickinson, Texas
Current Conditions -  °F | °C
As of 8:53 PM on Sunday 21 Dec 2014 (Local Time) from KLVJ Reporting Station
Haze Haze  
Wind Chill: 54°   Ceiling: Unl
Heat Index: 54°   Visibility: 6mi
Dew Point: 52°   Wind: 5mph
Humidity: 93%   Direction: 100°E
Pressure: 29.94"   Gusts: NA
Location:  29.46°N, 95.05°W
Report Text: KLVJ 220253Z AUTO 10004KT 6SM BR CLR 12/11 A2994 RMK AO2 SLP137 T01220111 58003
Loading
Personal Weather Stations






























Interactive Weather Map New forecast layout! Learn more

10-Day Weather Forecast

Advertisements
Track Severe Weather on mobile